sensor_id;sensor_type;location;lat;lon;timestamp;temperature;humidity
15386;DHT22;7791;47.246;9.648;2023-07-13T00:00:32;18.10;99.90
15386;DHT22;7791;47.246;9.648;2023-07-13T00:02:59;18.10;99.90
15386;DHT22;7791;47.246;9.648;2023-07-13T00:05:25;18.10;99.90
15386;DHT22;7791;47.246;9.648;2023-07-13T00:07:52;18.20;99.90
15386;DHT22;7791;47.246;9.648;2023-07-13T00:10:18;18.20;99.90
15386;DHT22;7791;47.246;9.648;2023-07-13T00:12:44;18.20;99.90
15386;DHT22;7791;47.246;9.648;2023-07-13T00:15:13;18.30;99.90
15386;DHT22;7791;47.246;9.648;2023-07-13T00:17:39;18.30;99.90
15386;DHT22;7791;47.246;9.648;2023-07-13T00:20:08;18.30;99.90
15386;DHT22;7791;47.246;9.648;2023-07-13T00:22:34;18.30;99.90
15386;DHT22;7791;47.246;9.648;2023-07-13T00:25:00;18.30;99.90
15386;DHT22;7791;47.246;9.648;2023-07-13T00:27:26;18.30;99.90
15386;DHT22;7791;47.246;9.648;2023-07-13T00:29:51;18.20;99.90
15386;DHT22;7791;47.246;9.648;2023-07-13T00:32:17;18.30;99.90
15386;DHT22;7791;47.246;9.648;2023-07-13T00:34:43;18.30;99.90
15386;DHT22;7791;47.246;9.648;2023-07-13T00:37:10;18.40;99.90
15386;DHT22;7791;47.246;9.648;2023-07-13T00:39:36;18.40;99.90
15386;DHT22;7791;47.246;9.648;2023-07-13T00:42:03;18.40;99.90
15386;DHT22;7791;47.246;9.648;2023-07-13T00:44:29;18.40;99.90
15386;DHT22;7791;47.246;9.648;2023-07-13T00:46:55;18.40;99.90
15386;DHT22;7791;47.246;9.648;2023-07-13T00:49:22;18.40;99.90
15386;DHT22;7791;47.246;9.648;2023-07-13T00:51:50;18.40;99.90
15386;DHT22;7791;47.246;9.648;2023-07-13T00:54:22;18.30;99.90
15386;DHT22;7791;47.246;9.648;2023-07-13T00:56:52;18.30;99.90
15386;DHT22;7791;47.246;9.648;2023-07-13T00:59:20;18.30;99.90
15386;DHT22;7791;47.246;9.648;2023-07-13T01:01:47;18.20;99.90
15386;DHT22;7791;47.246;9.648;2023-07-13T01:04:13;18.20;99.90
15386;DHT22;7791;47.246;9.648;2023-07-13T01:06:40;18.30;99.90
15386;DHT22;7791;47.246;9.648;2023-07-13T01:09:07;18.10;99.90
15386;DHT22;7791;47.246;9.648;2023-07-13T01:11:34;18.20;99.90
15386;DHT22;7791;47.246;9.648;2023-07-13T01:14:00;18.20;99.90
15386;DHT22;7791;47.246;9.648;2023-07-13T01:16:28;18.10;99.90
15386;DHT22;7791;47.246;9.648;2023-07-13T01:18:55;18.10;99.90
15386;DHT22;7791;47.246;9.648;2023-07-13T01:21:34;18.00;99.90
15386;DHT22;7791;47.246;9.648;2023-07-13T01:23:59;18.10;99.90
15386;DHT22;7791;47.246;9.648;2023-07-13T01:26:25;18.10;99.90
15386;DHT22;7791;47.246;9.648;2023-07-13T01:28:51;18.00;99.90
15386;DHT22;7791;47.246;9.648;2023-07-13T01:31:17;17.80;99.90
15386;DHT22;7791;47.246;9.648;2023-07-13T01:33:42;17.80;99.90
15386;DHT22;7791;47.246;9.648;2023-07-13T01:36:09;17.60;99.90
15386;DHT22;7791;47.246;9.648;2023-07-13T01:38:36;17.60;99.90
15386;DHT22;7791;47.246;9.648;2023-07-13T01:41:04;17.50;99.90
15386;DHT22;7791;47.246;9.648;2023-07-13T01:43:30;17.40;99.90
15386;DHT22;7791;47.246;9.648;2023-07-13T01:45:56;17.30;99.90
15386;DHT22;7791;47.246;9.648;2023-07-13T01:48:21;17.30;99.90
15386;DHT22;7791;47.246;9.648;2023-07-13T01:50:47;17.50;99.90
15386;DHT22;7791;47.246;9.648;2023-07-13T01:53:13;17.50;99.90
15386;DHT22;7791;47.246;9.648;2023-07-13T01:55:41;17.60;99.90
15386;DHT22;7791;47.246;9.648;2023-07-13T01:58:06;17.70;99.90
15386;DHT22;7791;47.246;9.648;2023-07-13T02:00:32;17.80;99.90
15386;DHT22;7791;47.246;9.648;2023-07-13T02:02:58;17.80;99.90
15386;DHT22;7791;47.246;9.648;2023-07-13T02:05:24;17.80;99.90
15386;DHT22;7791;47.246;9.648;2023-07-13T02:07:50;17.90;99.90
15386;DHT22;7791;47.246;9.648;2023-07-13T02:10:16;17.90;99.90
15386;DHT22;7791;47.246;9.648;2023-07-13T02:12:43;17.90;99.90
15386;DHT22;7791;47.246;9.648;2023-07-13T02:15:12;17.90;99.90
15386;DHT22;7791;47.246;9.648;2023-07-13T02:17:38;17.90;99.90
15386;DHT22;7791;47.246;9.648;2023-07-13T02:20:05;17.80;99.90
15386;DHT22;7791;47.246;9.648;2023-07-13T02:22:31;17.70;99.90
15386;DHT22;7791;47.246;9.648;2023-07-13T02:24:56;17.70;99.90
15386;DHT22;7791;47.246;9.648;2023-07-13T02:27:22;17.80;99.90
15386;DHT22;7791;47.246;9.648;2023-07-13T02:29:49;17.70;99.90
15386;DHT22;7791;47.246;9.648;2023-07-13T02:32:15;17.60;99.90
15386;DHT22;7791;47.246;9.648;2023-07-13T02:34:41;17.70;99.90
15386;DHT22;7791;47.246;9.648;2023-07-13T02:37:07;17.60;99.90
15386;DHT22;7791;47.246;9.648;2023-07-13T02:39:32;17.60;99.90
15386;DHT22;7791;47.246;9.648;2023-07-13T02:41:58;17.60;99.90
15386;DHT22;7791;47.246;9.648;2023-07-13T02:44:24;17.50;99.90
15386;DHT22;7791;47.246;9.648;2023-07-13T02:46:51;17.50;99.90
15386;DHT22;7791;47.246;9.648;2023-07-13T02:49:17;17.50;99.90
15386;DHT22;7791;47.246;9.648;2023-07-13T02:51:42;17.50;99.90
15386;DHT22;7791;47.246;9.648;2023-07-13T02:54:09;17.50;99.90
15386;DHT22;7791;47.246;9.648;2023-07-13T02:56:35;17.60;99.90
15386;DHT22;7791;47.246;9.648;2023-07-13T02:59:01;17.60;99.90
15386;DHT22;7791;47.246;9.648;2023-07-13T03:01:27;17.70;99.90
15386;DHT22;7791;47.246;9.648;2023-07-13T03:03:54;17.70;99.90
15386;DHT22;7791;47.246;9.648;2023-07-13T03:06:20;17.70;99.90
15386;DHT22;7791;47.246;9.648;2023-07-13T03:08:46;17.80;99.90
15386;DHT22;7791;47.246;9.648;2023-07-13T03:11:13;17.80;99.90
15386;DHT22;7791;47.246;9.648;2023-07-13T03:13:40;17.80;99.90
15386;DHT22;7791;47.246;9.648;2023-07-13T03:16:07;17.80;99.90
15386;DHT22;7791;47.246;9.648;2023-07-13T03:18:33;17.70;99.90
15386;DHT22;7791;47.246;9.648;2023-07-13T03:21:00;17.70;99.90
15386;DHT22;7791;47.246;9.648;2023-07-13T03:23:26;17.70;99.90
15386;DHT22;7791;47.246;9.648;2023-07-13T03:26:01;17.70;99.90
15386;DHT22;7791;47.246;9.648;2023-07-13T03:28:27;17.70;99.90
15386;DHT22;7791;47.246;9.648;2023-07-13T03:30:59;17.70;99.90
15386;DHT22;7791;47.246;9.648;2023-07-13T03:33:25;17.70;99.90
15386;DHT22;7791;47.246;9.648;2023-07-13T03:35:51;17.70;99.90
15386;DHT22;7791;47.246;9.648;2023-07-13T03:38:18;17.70;99.90
15386;DHT22;7791;47.246;9.648;2023-07-13T03:40:44;17.70;99.90
15386;DHT22;7791;47.246;9.648;2023-07-13T03:43:09;17.70;99.90
15386;DHT22;7791;47.246;9.648;2023-07-13T03:45:37;17.70;99.90
15386;DHT22;7791;47.246;9.648;2023-07-13T03:48:04;17.70;99.90
15386;DHT22;7791;47.246;9.648;2023-07-13T03:50:29;17.60;99.90
15386;DHT22;7791;47.246;9.648;2023-07-13T03:52:56;17.60;99.90
15386;DHT22;7791;47.246;9.648;2023-07-13T03:55:24;17.60;99.90
15386;DHT22;7791;47.246;9.648;2023-07-13T03:58:00;17.70;99.90
15386;DHT22;7791;47.246;9.648;2023-07-13T04:00:26;17.70;99.90
15386;DHT22;7791;47.246;9.648;2023-07-13T04:02:52;17.70;99.90
15386;DHT22;7791;47.246;9.648;2023-07-13T04:05:18;17.70;99.90
15386;DHT22;7791;47.246;9.648;2023-07-13T04:07:43;17.70;99.90
15386;DHT22;7791;47.246;9.648;2023-07-13T04:10:09;17.70;99.90
15386;DHT22;7791;47.246;9.648;2023-07-13T04:12:36;17.70;99.90
15386;DHT22;7791;47.246;9.648;2023-07-13T04:15:02;17.70;99.90
15386;DHT22;7791;47.246;9.648;2023-07-13T04:17:28;17.80;99.90
15386;DHT22;7791;47.246;9.648;2023-07-13T04:19:54;17.70;99.90
15386;DHT22;7791;47.246;9.648;2023-07-13T04:22:20;17.70;99.90
15386;DHT22;7791;47.246;9.648;2023-07-13T04:24:45;17.70;99.90
15386;DHT22;7791;47.246;9.648;2023-07-13T04:27:11;17.70;99.90
15386;DHT22;7791;47.246;9.648;2023-07-13T04:29:38;17.70;99.90
15386;DHT22;7791;47.246;9.648;2023-07-13T04:32:05;17.80;99.90
15386;DHT22;7791;47.246;9.648;2023-07-13T04:34:30;17.80;99.90
15386;DHT22;7791;47.246;9.648;2023-07-13T04:36:56;17.80;99.90
15386;DHT22;7791;47.246;9.648;2023-07-13T04:39:22;17.80;99.90
15386;DHT22;7791;47.246;9.648;2023-07-13T04:41:47;17.90;99.90
15386;DHT22;7791;47.246;9.648;2023-07-13T04:44:13;18.00;99.90
15386;DHT22;7791;47.246;9.648;2023-07-13T04:46:42;18.00;99.90
15386;DHT22;7791;47.246;9.648;2023-07-13T04:49:08;18.00;99.90
15386;DHT22;7791;47.246;9.648;2023-07-13T04:51:33;18.10;99.90
15386;DHT22;7791;47.246;9.648;2023-07-13T04:53:59;18.20;99.90
15386;DHT22;7791;47.246;9.648;2023-07-13T04:56:25;18.30;99.90
15386;DHT22;7791;47.246;9.648;2023-07-13T04:58:50;18.50;99.90
15386;DHT22;7791;47.246;9.648;2023-07-13T05:01:16;18.60;99.90
15386;DHT22;7791;47.246;9.648;2023-07-13T05:03:43;18.80;99.90
15386;DHT22;7791;47.246;9.648;2023-07-13T05:06:09;18.80;99.90
15386;DHT22;7791;47.246;9.648;2023-07-13T05:08:35;18.80;99.90
15386;DHT22;7791;47.246;9.648;2023-07-13T05:11:01;18.90;99.90
15386;DHT22;7791;47.246;9.648;2023-07-13T05:13:27;18.80;99.90
15386;DHT22;7791;47.246;9.648;2023-07-13T05:15:57;18.80;99.90
15386;DHT22;7791;47.246;9.648;2023-07-13T05:18:23;18.80;99.90
15386;DHT22;7791;47.246;9.648;2023-07-13T05:20:57;18.80;99.90
15386;DHT22;7791;47.246;9.648;2023-07-13T05:23:23;18.80;99.90
15386;DHT22;7791;47.246;9.648;2023-07-13T05:25:49;18.90;99.90
15386;DHT22;7791;47.246;9.648;2023-07-13T05:28:15;18.80;99.90
15386;DHT22;7791;47.246;9.648;2023-07-13T05:30:45;19.00;99.90
15386;DHT22;7791;47.246;9.648;2023-07-13T05:33:11;19.00;99.90
15386;DHT22;7791;47.246;9.648;2023-07-13T05:35:36;19.10;99.90
15386;DHT22;7791;47.246;9.648;2023-07-13T05:38:04;19.10;99.90
15386;DHT22;7791;47.246;9.648;2023-07-13T05:40:29;19.20;99.90
15386;DHT22;7791;47.246;9.648;2023-07-13T05:42:55;19.30;99.90
15386;DHT22;7791;47.246;9.648;2023-07-13T05:45:21;19.30;99.90
15386;DHT22;7791;47.246;9.648;2023-07-13T05:47:46;19.20;99.90
15386;DHT22;7791;47.246;9.648;2023-07-13T05:50:12;19.30;99.90
15386;DHT22;7791;47.246;9.648;2023-07-13T05:52:38;19.40;99.90
15386;DHT22;7791;47.246;9.648;2023-07-13T05:55:05;19.50;99.90
15386;DHT22;7791;47.246;9.648;2023-07-13T05:57:31;19.50;99.90
15386;DHT22;7791;47.246;9.648;2023-07-13T05:59:57;19.20;99.90
15386;DHT22;7791;47.246;9.648;2023-07-13T06:02:23;19.10;99.90
15386;DHT22;7791;47.246;9.648;2023-07-13T06:04:48;19.40;99.90
15386;DHT22;7791;47.246;9.648;2023-07-13T06:07:14;19.70;99.90
15386;DHT22;7791;47.246;9.648;2023-07-13T06:09:40;19.80;99.90
15386;DHT22;7791;47.246;9.648;2023-07-13T06:12:08;19.70;99.90
15386;DHT22;7791;47.246;9.648;2023-07-13T06:14:34;19.70;99.90
15386;DHT22;7791;47.246;9.648;2023-07-13T06:16:59;20.00;99.90
15386;DHT22;7791;47.246;9.648;2023-07-13T06:19:25;20.10;99.90
15386;DHT22;7791;47.246;9.648;2023-07-13T06:21:51;19.90;99.90
15386;DHT22;7791;47.246;9.648;2023-07-13T06:24:16;19.80;99.90
15386;DHT22;7791;47.246;9.648;2023-07-13T06:26:42;20.00;99.90
15386;DHT22;7791;47.246;9.648;2023-07-13T06:29:09;20.10;99.90
15386;DHT22;7791;47.246;9.648;2023-07-13T06:31:35;20.00;99.90
15386;DHT22;7791;47.246;9.648;2023-07-13T06:34:01;20.00;99.90
15386;DHT22;7791;47.246;9.648;2023-07-13T06:36:26;19.80;99.90
15386;DHT22;7791;47.246;9.648;2023-07-13T06:38:52;19.80;99.90
15386;DHT22;7791;47.246;9.648;2023-07-13T06:41:18;19.60;99.90
15386;DHT22;7791;47.246;9.648;2023-07-13T06:43:43;19.60;99.90
15386;DHT22;7791;47.246;9.648;2023-07-13T06:46:11;19.80;99.90
15386;DHT22;7791;47.246;9.648;2023-07-13T06:48:36;19.80;99.90
15386;DHT22;7791;47.246;9.648;2023-07-13T06:51:02;19.80;99.90
15386;DHT22;7791;47.246;9.648;2023-07-13T06:53:28;19.80;99.90
15386;DHT22;7791;47.246;9.648;2023-07-13T06:55:54;19.70;99.90
15386;DHT22;7791;47.246;9.648;2023-07-13T06:58:19;19.70;99.90
15386;DHT22;7791;47.246;9.648;2023-07-13T07:00:45;19.60;99.90
15386;DHT22;7791;47.246;9.648;2023-07-13T07:03:13;19.60;99.90
15386;DHT22;7791;47.246;9.648;2023-07-13T07:05:39;19.60;99.90
15386;DHT22;7791;47.246;9.648;2023-07-13T07:08:05;19.50;99.90
15386;DHT22;7791;47.246;9.648;2023-07-13T07:10:30;19.50;99.90
15386;DHT22;7791;47.246;9.648;2023-07-13T07:12:56;19.40;99.90
15386;DHT22;7791;47.246;9.648;2023-07-13T07:15:22;19.10;99.90
15386;DHT22;7791;47.246;9.648;2023-07-13T07:17:47;19.10;99.90
15386;DHT22;7791;47.246;9.648;2023-07-13T07:20:15;19.00;99.90
15386;DHT22;7791;47.246;9.648;2023-07-13T07:22:40;19.00;99.90
15386;DHT22;7791;47.246;9.648;2023-07-13T07:25:07;19.00;99.90
15386;DHT22;7791;47.246;9.648;2023-07-13T07:27:32;18.70;99.90
15386;DHT22;7791;47.246;9.648;2023-07-13T07:29:59;18.60;99.90
15386;DHT22;7791;47.246;9.648;2023-07-13T07:32:25;18.70;99.90
15386;DHT22;7791;47.246;9.648;2023-07-13T07:34:50;18.80;99.90
15386;DHT22;7791;47.246;9.648;2023-07-13T07:37:18;19.10;99.90
15386;DHT22;7791;47.246;9.648;2023-07-13T07:39:43;19.20;99.90
15386;DHT22;7791;47.246;9.648;2023-07-13T07:42:09;19.30;99.90
15386;DHT22;7791;47.246;9.648;2023-07-13T07:44:35;19.50;99.90
15386;DHT22;7791;47.246;9.648;2023-07-13T07:47:01;19.60;99.90
15386;DHT22;7791;47.246;9.648;2023-07-13T07:49:27;19.70;99.90
15386;DHT22;7791;47.246;9.648;2023-07-13T07:51:52;19.80;99.90
15386;DHT22;7791;47.246;9.648;2023-07-13T07:54:21;19.80;99.90
15386;DHT22;7791;47.246;9.648;2023-07-13T07:56:47;19.90;99.90
15386;DHT22;7791;47.246;9.648;2023-07-13T07:59:12;20.00;99.90
15386;DHT22;7791;47.246;9.648;2023-07-13T08:01:38;20.10;99.90
15386;DHT22;7791;47.246;9.648;2023-07-13T08:04:04;20.20;99.90
15386;DHT22;7791;47.246;9.648;2023-07-13T08:06:31;20.30;99.90
15386;DHT22;7791;47.246;9.648;2023-07-13T08:08:57;20.50;99.90
15386;DHT22;7791;47.246;9.648;2023-07-13T08:11:24;20.60;99.90
15386;DHT22;7791;47.246;9.648;2023-07-13T08:13:51;20.70;99.90
15386;DHT22;7791;47.246;9.648;2023-07-13T08:16:17;20.90;99.90
15386;DHT22;7791;47.246;9.648;2023-07-13T08:18:43;21.10;99.90
15386;DHT22;7791;47.246;9.648;2023-07-13T08:21:09;21.40;99.90
15386;DHT22;7791;47.246;9.648;2023-07-13T08:23:36;21.60;99.90
15386;DHT22;7791;47.246;9.648;2023-07-13T08:26:03;22.20;99.90
15386;DHT22;7791;47.246;9.648;2023-07-13T08:28:31;22.70;99.90
15386;DHT22;7791;47.246;9.648;2023-07-13T08:31:00;23.60;99.90
15386;DHT22;7791;47.246;9.648;2023-07-13T08:33:26;24.10;99.90
15386;DHT22;7791;47.246;9.648;2023-07-13T08:35:53;24.80;99.90
15386;DHT22;7791;47.246;9.648;2023-07-13T08:38:19;25.70;99.90
15386;DHT22;7791;47.246;9.648;2023-07-13T08:40:50;26.30;99.90
15386;DHT22;7791;47.246;9.648;2023-07-13T08:43:20;26.80;99.90
15386;DHT22;7791;47.246;9.648;2023-07-13T08:45:52;26.00;99.90
15386;DHT22;7791;47.246;9.648;2023-07-13T08:48:23;25.40;99.90
15386;DHT22;7791;47.246;9.648;2023-07-13T08:50:54;25.80;99.90
15386;DHT22;7791;47.246;9.648;2023-07-13T08:53:21;25.70;99.90
15386;DHT22;7791;47.246;9.648;2023-07-13T08:55:53;25.70;99.90
15386;DHT22;7791;47.246;9.648;2023-07-13T08:58:22;25.70;99.90
15386;DHT22;7791;47.246;9.648;2023-07-13T09:01:05;24.90;99.90
15386;DHT22;7791;47.246;9.648;2023-07-13T09:03:40;26.10;99.90
15386;DHT22;7791;47.246;9.648;2023-07-13T09:06:12;28.00;99.90
15386;DHT22;7791;47.246;9.648;2023-07-13T09:08:48;28.90;99.90
15386;DHT22;7791;47.246;9.648;2023-07-13T09:11:28;29.90;99.90
15386;DHT22;7791;47.246;9.648;2023-07-13T09:14:03;29.80;99.90
15386;DHT22;7791;47.246;9.648;2023-07-13T09:16:33;28.70;99.90
15386;DHT22;7791;47.246;9.648;2023-07-13T09:19:04;29.00;99.90
15386;DHT22;7791;47.246;9.648;2023-07-13T09:21:32;29.10;99.90
15386;DHT22;7791;47.246;9.648;2023-07-13T09:24:06;28.60;99.90
15386;DHT22;7791;47.246;9.648;2023-07-13T09:26:40;26.40;99.90
15386;DHT22;7791;47.246;9.648;2023-07-13T09:29:14;25.20;99.90
15386;DHT22;7791;47.246;9.648;2023-07-13T09:31:47;25.30;99.90
15386;DHT22;7791;47.246;9.648;2023-07-13T09:34:14;25.70;99.90
15386;DHT22;7791;47.246;9.648;2023-07-13T09:36:40;26.30;99.90
15386;DHT22;7791;47.246;9.648;2023-07-13T09:39:12;27.70;99.90
15386;DHT22;7791;47.246;9.648;2023-07-13T09:41:45;29.40;99.90
15386;DHT22;7791;47.246;9.648;2023-07-13T09:44:17;29.60;99.90
15386;DHT22;7791;47.246;9.648;2023-07-13T09:46:46;29.10;99.90
15386;DHT22;7791;47.246;9.648;2023-07-13T09:49:12;28.40;99.90
15386;DHT22;7791;47.246;9.648;2023-07-13T09:51:39;28.30;99.90
15386;DHT22;7791;47.246;9.648;2023-07-13T09:54:05;29.50;99.90
15386;DHT22;7791;47.246;9.648;2023-07-13T09:56:31;29.90;99.90
15386;DHT22;7791;47.246;9.648;2023-07-13T09:58:58;30.20;99.90
15386;DHT22;7791;47.246;9.648;2023-07-13T10:01:34;31.00;99.90
15386;DHT22;7791;47.246;9.648;2023-07-13T10:04:10;30.40;99.90
15386;DHT22;7791;47.246;9.648;2023-07-13T10:06:35;29.20;99.90
15386;DHT22;7791;47.246;9.648;2023-07-13T10:09:01;29.90;99.90
15386;DHT22;7791;47.246;9.648;2023-07-13T10:11:29;29.60;99.90
15386;DHT22;7791;47.246;9.648;2023-07-13T10:13:56;30.20;99.90
15386;DHT22;7791;47.246;9.648;2023-07-13T10:16:23;31.20;99.70
15386;DHT22;7791;47.246;9.648;2023-07-13T10:18:58;32.20;98.80
15386;DHT22;7791;47.246;9.648;2023-07-13T10:21:30;31.10;97.70
15386;DHT22;7791;47.246;9.648;2023-07-13T10:24:02;31.80;98.30
15386;DHT22;7791;47.246;9.648;2023-07-13T10:26:32;30.90;97.10
15386;DHT22;7791;47.246;9.648;2023-07-13T10:29:02;29.60;99.50
15386;DHT22;7791;47.246;9.648;2023-07-13T10:31:31;28.80;99.90
15386;DHT22;7791;47.246;9.648;2023-07-13T10:33:56;27.70;99.90
15386;DHT22;7791;47.246;9.648;2023-07-13T10:36:34;26.90;99.90
15386;DHT22;7791;47.246;9.648;2023-07-13T10:39:05;25.90;99.90
15386;DHT22;7791;47.246;9.648;2023-07-13T10:41:33;25.70;99.90
15386;DHT22;7791;47.246;9.648;2023-07-13T10:44:01;25.70;99.90
15386;DHT22;7791;47.246;9.648;2023-07-13T10:46:28;26.10;99.90
15386;DHT22;7791;47.246;9.648;2023-07-13T10:48:56;26.20;99.90
15386;DHT22;7791;47.246;9.648;2023-07-13T10:51:23;26.50;99.90
15386;DHT22;7791;47.246;9.648;2023-07-13T10:54:14;26.60;99.90
15386;DHT22;7791;47.246;9.648;2023-07-13T10:56:41;26.40;99.90
15386;DHT22;7791;47.246;9.648;2023-07-13T10:59:11;25.80;99.90
15386;DHT22;7791;47.246;9.648;2023-07-13T11:01:48;25.40;99.90
15386;DHT22;7791;47.246;9.648;2023-07-13T11:04:15;25.20;99.90
15386;DHT22;7791;47.246;9.648;2023-07-13T11:06:42;24.90;99.90
15386;DHT22;7791;47.246;9.648;2023-07-13T11:09:31;24.60;99.90
15386;DHT22;7791;47.246;9.648;2023-07-13T11:11:58;23.90;99.90
15386;DHT22;7791;47.246;9.648;2023-07-13T11:14:28;23.30;99.90
15386;DHT22;7791;47.246;9.648;2023-07-13T11:16:55;23.20;99.90
15386;DHT22;7791;47.246;9.648;2023-07-13T11:19:41;23.10;99.90
15386;DHT22;7791;47.246;9.648;2023-07-13T11:22:15;23.30;99.90
15386;DHT22;7791;47.246;9.648;2023-07-13T11:24:57;23.60;99.90
15386;DHT22;7791;47.246;9.648;2023-07-13T11:27:35;23.70;99.90
15386;DHT22;7791;47.246;9.648;2023-07-13T11:30:23;24.60;99.90
15386;DHT22;7791;47.246;9.648;2023-07-13T11:32:51;25.80;99.90
15386;DHT22;7791;47.246;9.648;2023-07-13T11:35:28;25.60;99.90
15386;DHT22;7791;47.246;9.648;2023-07-13T11:37:54;25.40;99.90
15386;DHT22;7791;47.246;9.648;2023-07-13T11:40:22;25.20;99.90
15386;DHT22;7791;47.246;9.648;2023-07-13T11:42:51;25.30;99.90
15386;DHT22;7791;47.246;9.648;2023-07-13T11:45:21;25.30;99.90
15386;DHT22;7791;47.246;9.648;2023-07-13T11:47:48;25.00;99.90
15386;DHT22;7791;47.246;9.648;2023-07-13T11:50:19;24.90;99.90
15386;DHT22;7791;47.246;9.648;2023-07-13T11:52:45;24.80;99.90
15386;DHT22;7791;47.246;9.648;2023-07-13T11:55:15;25.00;99.90
15386;DHT22;7791;47.246;9.648;2023-07-13T11:57:48;25.40;99.90
15386;DHT22;7791;47.246;9.648;2023-07-13T12:00:17;25.50;99.90
15386;DHT22;7791;47.246;9.648;2023-07-13T12:02:46;26.10;99.90
15386;DHT22;7791;47.246;9.648;2023-07-13T12:05:15;27.00;99.90
15386;DHT22;7791;47.246;9.648;2023-07-13T12:07:42;28.40;99.90
15386;DHT22;7791;47.246;9.648;2023-07-13T12:10:18;28.90;99.90
15386;DHT22;7791;47.246;9.648;2023-07-13T12:12:48;28.30;99.90
15386;DHT22;7791;47.246;9.648;2023-07-13T12:15:14;27.40;99.90
15386;DHT22;7791;47.246;9.648;2023-07-13T12:17:41;27.50;99.90
15386;DHT22;7791;47.246;9.648;2023-07-13T12:20:19;28.00;99.90
15386;DHT22;7791;47.246;9.648;2023-07-13T12:22:46;28.20;99.90
15386;DHT22;7791;47.246;9.648;2023-07-13T12:25:12;27.80;99.90
15386;DHT22;7791;47.246;9.648;2023-07-13T12:27:38;26.90;99.90
15386;DHT22;7791;47.246;9.648;2023-07-13T12:30:23;26.30;99.90
15386;DHT22;7791;47.246;9.648;2023-07-13T12:32:56;25.70;99.90
15386;DHT22;7791;47.246;9.648;2023-07-13T12:35:23;25.50;99.90
15386;DHT22;7791;47.246;9.648;2023-07-13T12:37:51;25.50;99.90
15386;DHT22;7791;47.246;9.648;2023-07-13T12:40:19;25.70;99.90
15386;DHT22;7791;47.246;9.648;2023-07-13T12:42:46;25.90;99.90
15386;DHT22;7791;47.246;9.648;2023-07-13T12:45:18;26.40;99.90
15386;DHT22;7791;47.246;9.648;2023-07-13T12:47:48;26.90;99.90
15386;DHT22;7791;47.246;9.648;2023-07-13T12:53:22;26.40;99.90
15386;DHT22;7791;47.246;9.648;2023-07-13T12:55:49;26.30;99.90
15386;DHT22;7791;47.246;9.648;2023-07-13T12:58:25;25.90;99.90
15386;DHT22;7791;47.246;9.648;2023-07-13T13:00:54;25.90;99.90
15386;DHT22;7791;47.246;9.648;2023-07-13T13:03:25;26.20;99.90
15386;DHT22;7791;47.246;9.648;2023-07-13T13:05:58;26.10;99.90
15386;DHT22;7791;47.246;9.648;2023-07-13T13:08:23;25.50;99.90
15386;DHT22;7791;47.246;9.648;2023-07-13T13:10:49;25.80;99.90
15386;DHT22;7791;47.246;9.648;2023-07-13T13:13:15;25.60;99.90
15386;DHT22;7791;47.246;9.648;2023-07-13T13:15:40;25.30;99.90
15386;DHT22;7791;47.246;9.648;2023-07-13T13:18:15;25.00;99.90
15386;DHT22;7791;47.246;9.648;2023-07-13T13:20:41;25.00;99.90
15386;DHT22;7791;47.246;9.648;2023-07-13T13:23:10;25.50;99.90
15386;DHT22;7791;47.246;9.648;2023-07-13T13:25:36;26.30;99.90
15386;DHT22;7791;47.246;9.648;2023-07-13T13:28:02;26.90;99.90
15386;DHT22;7791;47.246;9.648;2023-07-13T13:30:28;27.40;99.90
15386;DHT22;7791;47.246;9.648;2023-07-13T13:32:54;28.10;99.90
15386;DHT22;7791;47.246;9.648;2023-07-13T13:35:21;28.70;99.90
15386;DHT22;7791;47.246;9.648;2023-07-13T13:37:47;28.90;99.90
15386;DHT22;7791;47.246;9.648;2023-07-13T13:40:18;29.40;99.90
15386;DHT22;7791;47.246;9.648;2023-07-13T13:42:44;28.80;99.60
15386;DHT22;7791;47.246;9.648;2023-07-13T13:45:10;28.00;99.90
15386;DHT22;7791;47.246;9.648;2023-07-13T13:47:36;28.00;99.90
15386;DHT22;7791;47.246;9.648;2023-07-13T13:50:05;27.90;99.50
15386;DHT22;7791;47.246;9.648;2023-07-13T13:52:37;27.70;99.90
15386;DHT22;7791;47.246;9.648;2023-07-13T13:55:11;27.70;99.90
15386;DHT22;7791;47.246;9.648;2023-07-13T13:57:36;27.30;99.90
15386;DHT22;7791;47.246;9.648;2023-07-13T14:00:03;27.70;99.90
15386;DHT22;7791;47.246;9.648;2023-07-13T14:02:29;28.50;98.40
15386;DHT22;7791;47.246;9.648;2023-07-13T14:04:58;27.90;99.90
15386;DHT22;7791;47.246;9.648;2023-07-13T14:07:24;27.60;99.40
15386;DHT22;7791;47.246;9.648;2023-07-13T14:09:52;28.30;99.60
15386;DHT22;7791;47.246;9.648;2023-07-13T14:12:17;29.30;98.30
15386;DHT22;7791;47.246;9.648;2023-07-13T14:14:43;28.80;98.50
15386;DHT22;7791;47.246;9.648;2023-07-13T14:17:19;28.50;99.80
15386;DHT22;7791;47.246;9.648;2023-07-13T14:19:45;29.00;98.40
15386;DHT22;7791;47.246;9.648;2023-07-13T14:22:11;29.30;99.00
15386;DHT22;7791;47.246;9.648;2023-07-13T14:24:36;28.70;97.40
15386;DHT22;7791;47.246;9.648;2023-07-13T14:27:04;28.10;99.40
15386;DHT22;7791;47.246;9.648;2023-07-13T14:29:30;27.90;99.00
15386;DHT22;7791;47.246;9.648;2023-07-13T14:31:56;27.90;99.00
15386;DHT22;7791;47.246;9.648;2023-07-13T14:34:22;28.80;99.00
15386;DHT22;7791;47.246;9.648;2023-07-13T14:36:48;29.70;97.90
15386;DHT22;7791;47.246;9.648;2023-07-13T14:39:16;29.60;97.80
15386;DHT22;7791;47.246;9.648;2023-07-13T14:41:42;30.00;96.90
15386;DHT22;7791;47.246;9.648;2023-07-13T14:44:13;29.20;97.70
15386;DHT22;7791;47.246;9.648;2023-07-13T14:46:39;29.10;97.90
15386;DHT22;7791;47.246;9.648;2023-07-13T14:49:07;28.30;98.20
15386;DHT22;7791;47.246;9.648;2023-07-13T14:51:37;28.10;99.10
15386;DHT22;7791;47.246;9.648;2023-07-13T14:54:05;27.50;99.90
15386;DHT22;7791;47.246;9.648;2023-07-13T14:56:31;27.40;99.90
15386;DHT22;7791;47.246;9.648;2023-07-13T14:58:57;27.40;99.90
15386;DHT22;7791;47.246;9.648;2023-07-13T15:01:25;27.80;99.90
15386;DHT22;7791;47.246;9.648;2023-07-13T15:03:52;28.20;99.90
15386;DHT22;7791;47.246;9.648;2023-07-13T15:06:18;29.80;98.70
15386;DHT22;7791;47.246;9.648;2023-07-13T15:08:43;30.70;96.00
15386;DHT22;7791;47.246;9.648;2023-07-13T15:11:09;31.20;96.80
15386;DHT22;7791;47.246;9.648;2023-07-13T15:13:35;31.40;95.00
15386;DHT22;7791;47.246;9.648;2023-07-13T15:16:01;31.30;94.70
15386;DHT22;7791;47.246;9.648;2023-07-13T15:18:29;31.10;93.70
15386;DHT22;7791;47.246;9.648;2023-07-13T15:20:55;31.50;95.10
15386;DHT22;7791;47.246;9.648;2023-07-13T15:23:21;32.20;92.70
15386;DHT22;7791;47.246;9.648;2023-07-13T15:25:47;32.90;92.10
15386;DHT22;7791;47.246;9.648;2023-07-13T15:28:13;31.80;91.90
15386;DHT22;7791;47.246;9.648;2023-07-13T15:30:41;30.70;92.70
15386;DHT22;7791;47.246;9.648;2023-07-13T15:33:12;29.80;93.90
15386;DHT22;7791;47.246;9.648;2023-07-13T15:35:40;29.00;93.50
15386;DHT22;7791;47.246;9.648;2023-07-13T15:38:14;29.10;94.90
15386;DHT22;7791;47.246;9.648;2023-07-13T15:40:40;29.70;93.80
15386;DHT22;7791;47.246;9.648;2023-07-13T15:43:10;29.90;93.90
15386;DHT22;7791;47.246;9.648;2023-07-13T15:45:36;29.50;95.40
15386;DHT22;7791;47.246;9.648;2023-07-13T15:48:03;28.70;94.40
15386;DHT22;7791;47.246;9.648;2023-07-13T15:50:42;28.10;96.10